sensor_id;sensor_type;location;lat;lon;timestamp;pressure;altitude;pressure_sealevel;temperature;humidity
61357;BME280;47227;46.752;23.576;2023-01-30T00:00:37;96712.80;;;-3.23;69.66
61357;BME280;47227;46.752;23.576;2023-01-30T00:04:19;96694.12;;;-3.21;69.50
61357;BME280;47227;46.752;23.576;2023-01-30T00:06:52;96689.64;;;-3.15;69.39
61357;BME280;47227;46.752;23.576;2023-01-30T00:09:21;96690.13;;;-3.10;69.48
61357;BME280;47227;46.752;23.576;2023-01-30T00:11:49;96690.32;;;-3.03;69.61
61357;BME280;47227;46.752;23.576;2023-01-30T00:14:16;96685.06;;;-2.98;69.95
61357;BME280;47227;46.752;23.576;2023-01-30T00:16:44;96681.19;;;-2.94;69.71
61357;BME280;47227;46.752;23.576;2023-01-30T00:19:12;96684.75;;;-2.90;69.46
61357;BME280;47227;46.752;23.576;2023-01-30T00:21:40;96684.73;;;-2.88;69.71
61357;BME280;47227;46.752;23.576;2023-01-30T00:24:08;96684.08;;;-2.89;69.40
61357;BME280;47227;46.752;23.576;2023-01-30T00:26:36;96686.20;;;-2.89;68.99
61357;BME280;47227;46.752;23.576;2023-01-30T00:29:05;96689.55;;;-2.90;69.16
61357;BME280;47227;46.752;23.576;2023-01-30T00:31:33;96689.83;;;-2.90;69.54
61357;BME280;47227;46.752;23.576;2023-01-30T00:34:01;96692.71;;;-2.89;69.52
61357;BME280;47227;46.752;23.576;2023-01-30T00:36:29;96691.65;;;-2.89;69.26
61357;BME280;47227;46.752;23.576;2023-01-30T00:38:58;96690.95;;;-2.90;69.14
61357;BME280;47227;46.752;23.576;2023-01-30T00:41:26;96693.66;;;-2.92;69.50
61357;BME280;47227;46.752;23.576;2023-01-30T00:44:14;96693.75;;;-2.93;69.24
61357;BME280;47227;46.752;23.576;2023-01-30T00:46:53;96689.92;;;-2.96;69.08
61357;BME280;47227;46.752;23.576;2023-01-30T00:49:34;96692.38;;;-2.98;69.14
61357;BME280;47227;46.752;23.576;2023-01-30T00:52:03;96693.09;;;-3.00;69.04
61357;BME280;47227;46.752;23.576;2023-01-30T00:54:31;96690.44;;;-3.01;69.31
61357;BME280;47227;46.752;23.576;2023-01-30T00:56:59;96684.59;;;-3.02;68.99
61357;BME280;47227;46.752;23.576;2023-01-30T00:59:27;96683.17;;;-3.04;68.88
61357;BME280;47227;46.752;23.576;2023-01-30T01:01:55;96682.55;;;-3.04;69.03
61357;BME280;47227;46.752;23.576;2023-01-30T01:04:23;96680.34;;;-3.04;69.31
61357;BME280;47227;46.752;23.576;2023-01-30T01:06:51;96677.42;;;-3.04;69.03
61357;BME280;47227;46.752;23.576;2023-01-30T01:09:19;96670.67;;;-3.03;69.37
61357;BME280;47227;46.752;23.576;2023-01-30T01:11:48;96661.30;;;-3.02;69.21
61357;BME280;47227;46.752;23.576;2023-01-30T01:14:16;96660.66;;;-3.01;69.19
61357;BME280;47227;46.752;23.576;2023-01-30T01:16:44;96652.70;;;-3.00;69.23
61357;BME280;47227;46.752;23.576;2023-01-30T01:19:12;96645.88;;;-3.00;68.85
61357;BME280;47227;46.752;23.576;2023-01-30T01:21:40;96646.27;;;-3.02;69.10
61357;BME280;47227;46.752;23.576;2023-01-30T01:24:11;96642.77;;;-3.01;69.40
61357;BME280;47227;46.752;23.576;2023-01-30T01:26:40;96642.61;;;-3.00;69.28
61357;BME280;47227;46.752;23.576;2023-01-30T01:29:12;96640.86;;;-2.98;69.20
61357;BME280;47227;46.752;23.576;2023-01-30T01:31:42;96631.05;;;-2.99;68.68
61357;BME280;47227;46.752;23.576;2023-01-30T01:34:11;96625.79;;;-2.99;69.06
61357;BME280;47227;46.752;23.576;2023-01-30T01:36:39;96624.15;;;-2.96;69.00
61357;BME280;47227;46.752;23.576;2023-01-30T01:39:22;96622.70;;;-2.94;69.13
61357;BME280;47227;46.752;23.576;2023-01-30T01:41:50;96620.36;;;-2.93;68.99
61357;BME280;47227;46.752;23.576;2023-01-30T01:44:18;96611.47;;;-2.93;69.16
61357;BME280;47227;46.752;23.576;2023-01-30T01:46:59;96610.28;;;-2.93;68.85
61357;BME280;47227;46.752;23.576;2023-01-30T01:49:31;96611.74;;;-2.94;69.06
61357;BME280;47227;46.752;23.576;2023-01-30T01:52:08;96602.46;;;-2.93;69.07
61357;BME280;47227;46.752;23.576;2023-01-30T01:54:44;96596.68;;;-2.92;69.41
61357;BME280;47227;46.752;23.576;2023-01-30T01:57:18;96589.81;;;-2.93;68.66
61357;BME280;47227;46.752;23.576;2023-01-30T01:59:51;96592.83;;;-2.91;69.09
61357;BME280;47227;46.752;23.576;2023-01-30T02:02:20;96591.75;;;-2.89;69.49
61357;BME280;47227;46.752;23.576;2023-01-30T02:04:54;96592.53;;;-2.87;69.33
61357;BME280;47227;46.752;23.576;2023-01-30T02:07:57;96587.43;;;-2.84;69.29
61357;BME280;47227;46.752;23.576;2023-01-30T02:13:29;96585.55;;;-2.79;69.24
61357;BME280;47227;46.752;23.576;2023-01-30T02:16:00;96581.81;;;-2.77;69.64
61357;BME280;47227;46.752;23.576;2023-01-30T02:18:30;96587.05;;;-2.75;69.47
61357;BME280;47227;46.752;23.576;2023-01-30T02:21:29;96586.45;;;-2.72;69.54
61357;BME280;47227;46.752;23.576;2023-01-30T02:27:26;96585.63;;;-2.69;69.55
61357;BME280;47227;46.752;23.576;2023-01-30T02:33:01;96584.90;;;-2.71;69.22
61357;BME280;47227;46.752;23.576;2023-01-30T02:38:40;96588.55;;;-2.68;69.14
61357;BME280;47227;46.752;23.576;2023-01-30T02:44:26;96588.61;;;-2.67;69.35
61357;BME280;47227;46.752;23.576;2023-01-30T02:47:16;96591.60;;;-2.66;69.08
61357;BME280;47227;46.752;23.576;2023-01-30T02:49:49;96587.40;;;-2.65;68.97
61357;BME280;47227;46.752;23.576;2023-01-30T02:52:21;96579.83;;;-2.65;69.21
61357;BME280;47227;46.752;23.576;2023-01-30T02:54:50;96578.56;;;-2.64;69.08
61357;BME280;47227;46.752;23.576;2023-01-30T02:57:21;96574.63;;;-2.64;69.39
61357;BME280;47227;46.752;23.576;2023-01-30T02:59:58;96572.89;;;-2.64;69.32
61357;BME280;47227;46.752;23.576;2023-01-30T03:05:51;96569.21;;;-2.63;69.58
61357;BME280;47227;46.752;23.576;2023-01-30T03:08:31;96560.23;;;-2.64;69.50
61357;BME280;47227;46.752;23.576;2023-01-30T03:11:04;96557.56;;;-2.64;69.96
61357;BME280;47227;46.752;23.576;2023-01-30T03:13:48;96554.73;;;-2.65;69.76
61357;BME280;47227;46.752;23.576;2023-01-30T03:16:24;96553.73;;;-2.66;69.94
61357;BME280;47227;46.752;23.576;2023-01-30T03:18:54;96545.06;;;-2.64;69.84
61357;BME280;47227;46.752;23.576;2023-01-30T03:21:22;96535.21;;;-2.64;69.86
61357;BME280;47227;46.752;23.576;2023-01-30T03:23:51;96526.16;;;-2.64;69.82
61357;BME280;47227;46.752;23.576;2023-01-30T03:26:23;96524.81;;;-2.64;69.85
61357;BME280;47227;46.752;23.576;2023-01-30T03:28:52;96522.12;;;-2.64;69.81
61357;BME280;47227;46.752;23.576;2023-01-30T03:31:20;96520.61;;;-2.65;69.86
61357;BME280;47227;46.752;23.576;2023-01-30T03:33:49;96520.33;;;-2.64;70.23
61357;BME280;47227;46.752;23.576;2023-01-30T03:36:17;96516.11;;;-2.64;69.77
61357;BME280;47227;46.752;23.576;2023-01-30T03:38:45;96521.42;;;-2.64;70.14
61357;BME280;47227;46.752;23.576;2023-01-30T03:41:13;96522.83;;;-2.61;69.95
61357;BME280;47227;46.752;23.576;2023-01-30T03:43:41;96520.79;;;-2.58;69.96
61357;BME280;47227;46.752;23.576;2023-01-30T03:46:09;96515.16;;;-2.53;70.33
61357;BME280;47227;46.752;23.576;2023-01-30T03:48:38;96518.86;;;-2.48;70.18
61357;BME280;47227;46.752;23.576;2023-01-30T03:51:06;96514.73;;;-2.42;70.19
61357;BME280;47227;46.752;23.576;2023-01-30T03:53:35;96509.05;;;-2.34;69.93
61357;BME280;47227;46.752;23.576;2023-01-30T03:56:03;96511.66;;;-2.28;70.11
61357;BME280;47227;46.752;23.576;2023-01-30T03:58:32;96511.87;;;-2.20;70.04
61357;BME280;47227;46.752;23.576;2023-01-30T04:01:09;96513.58;;;-2.13;69.96
61357;BME280;47227;46.752;23.576;2023-01-30T04:03:37;96509.44;;;-2.10;70.18
61357;BME280;47227;46.752;23.576;2023-01-30T04:06:05;96506.67;;;-2.05;69.83
61357;BME280;47227;46.752;23.576;2023-01-30T04:08:33;96504.87;;;-2.04;69.38
61357;BME280;47227;46.752;23.576;2023-01-30T04:11:03;96498.66;;;-2.07;68.88
61357;BME280;47227;46.752;23.576;2023-01-30T04:13:31;96495.75;;;-2.10;68.87
61357;BME280;47227;46.752;23.576;2023-01-30T04:16:20;96493.92;;;-2.10;68.75
61357;BME280;47227;46.752;23.576;2023-01-30T04:19:05;96489.52;;;-2.12;68.69
61357;BME280;47227;46.752;23.576;2023-01-30T04:21:33;96487.55;;;-2.13;69.00
61357;BME280;47227;46.752;23.576;2023-01-30T04:24:01;96484.11;;;-2.13;68.90
61357;BME280;47227;46.752;23.576;2023-01-30T04:26:29;96483.77;;;-2.17;68.34
61357;BME280;47227;46.752;23.576;2023-01-30T04:28:57;96484.55;;;-2.23;68.05
61357;BME280;47227;46.752;23.576;2023-01-30T04:31:26;96486.35;;;-2.25;68.29
61357;BME280;47227;46.752;23.576;2023-01-30T04:33:58;96486.67;;;-2.26;68.56
61357;BME280;47227;46.752;23.576;2023-01-30T04:36:26;96488.18;;;-2.26;68.77
61357;BME280;47227;46.752;23.576;2023-01-30T04:38:56;96487.53;;;-2.26;68.74
61357;BME280;47227;46.752;23.576;2023-01-30T04:41:25;96480.92;;;-2.29;68.21
61357;BME280;47227;46.752;23.576;2023-01-30T04:43:56;96484.52;;;-2.30;67.97
61357;BME280;47227;46.752;23.576;2023-01-30T04:46:33;96478.04;;;-2.30;68.15
61357;BME280;47227;46.752;23.576;2023-01-30T04:49:01;96479.98;;;-2.31;68.24
61357;BME280;47227;46.752;23.576;2023-01-30T04:51:29;96477.27;;;-2.33;68.38
61357;BME280;47227;46.752;23.576;2023-01-30T04:53:57;96477.20;;;-2.34;68.48
61357;BME280;47227;46.752;23.576;2023-01-30T04:56:26;96479.89;;;-2.35;68.33
61357;BME280;47227;46.752;23.576;2023-01-30T04:58:54;96478.13;;;-2.38;68.45
61357;BME280;47227;46.752;23.576;2023-01-30T05:01:29;96477.55;;;-2.41;68.41
61357;BME280;47227;46.752;23.576;2023-01-30T05:03:58;96473.70;;;-2.43;68.46
61357;BME280;47227;46.752;23.576;2023-01-30T05:06:29;96470.71;;;-2.45;68.77
61357;BME280;47227;46.752;23.576;2023-01-30T05:08:58;96468.38;;;-2.48;68.79
61357;BME280;47227;46.752;23.576;2023-01-30T05:11:27;96467.34;;;-2.49;68.34
61357;BME280;47227;46.752;23.576;2023-01-30T05:13:56;96464.14;;;-2.48;68.70
61357;BME280;47227;46.752;23.576;2023-01-30T05:16:26;96464.73;;;-2.49;68.61
61357;BME280;47227;46.752;23.576;2023-01-30T05:18:54;96463.44;;;-2.48;68.70
61357;BME280;47227;46.752;23.576;2023-01-30T05:21:28;96459.80;;;-2.48;68.46
61357;BME280;47227;46.752;23.576;2023-01-30T05:23:56;96452.84;;;-2.48;68.65
61357;BME280;47227;46.752;23.576;2023-01-30T05:26:25;96447.00;;;-2.48;68.00
61357;BME280;47227;46.752;23.576;2023-01-30T05:28:55;96442.44;;;-2.49;68.57
61357;BME280;47227;46.752;23.576;2023-01-30T05:31:24;96442.09;;;-2.48;68.40
61357;BME280;47227;46.752;23.576;2023-01-30T05:33:57;96438.11;;;-2.50;68.11
61357;BME280;47227;46.752;23.576;2023-01-30T05:36:25;96438.84;;;-2.52;67.89
61357;BME280;47227;46.752;23.576;2023-01-30T05:38:53;96436.88;;;-2.53;68.21
61357;BME280;47227;46.752;23.576;2023-01-30T05:41:21;96430.43;;;-2.53;68.22
61357;BME280;47227;46.752;23.576;2023-01-30T05:43:49;96427.70;;;-2.55;68.20
61357;BME280;47227;46.752;23.576;2023-01-30T05:46:18;96425.64;;;-2.53;68.53
61357;BME280;47227;46.752;23.576;2023-01-30T05:48:46;96428.11;;;-2.51;68.56
61357;BME280;47227;46.752;23.576;2023-01-30T05:51:20;96423.42;;;-2.48;68.65
61357;BME280;47227;46.752;23.576;2023-01-30T05:53:50;96421.86;;;-2.47;68.38
61357;BME280;47227;46.752;23.576;2023-01-30T05:56:18;96425.16;;;-2.44;68.25
61357;BME280;47227;46.752;23.576;2023-01-30T05:58:52;96424.74;;;-2.42;68.25
61357;BME280;47227;46.752;23.576;2023-01-30T06:01:21;96422.02;;;-2.40;67.35
61357;BME280;47227;46.752;23.576;2023-01-30T06:03:51;96419.13;;;-2.40;66.10
61357;BME280;47227;46.752;23.576;2023-01-30T06:06:20;96422.05;;;-2.39;66.36
61357;BME280;47227;46.752;23.576;2023-01-30T06:08:53;96429.17;;;-2.36;65.77
61357;BME280;47227;46.752;23.576;2023-01-30T06:11:23;96427.27;;;-2.33;66.33
61357;BME280;47227;46.752;23.576;2023-01-30T06:13:56;96423.77;;;-2.29;66.14
61357;BME280;47227;46.752;23.576;2023-01-30T06:16:24;96422.38;;;-2.26;66.32
61357;BME280;47227;46.752;23.576;2023-01-30T06:18:54;96417.81;;;-2.21;66.43
61357;BME280;47227;46.752;23.576;2023-01-30T06:21:56;96416.02;;;-2.18;66.87
61357;BME280;47227;46.752;23.576;2023-01-30T06:24:24;96413.50;;;-2.14;65.78
61357;BME280;47227;46.752;23.576;2023-01-30T06:26:53;96414.58;;;-2.12;66.44
61357;BME280;47227;46.752;23.576;2023-01-30T06:29:21;96408.52;;;-2.09;66.38
61357;BME280;47227;46.752;23.576;2023-01-30T06:31:50;96406.25;;;-2.09;66.35
61357;BME280;47227;46.752;23.576;2023-01-30T06:34:19;96408.06;;;-2.13;66.25
61357;BME280;47227;46.752;23.576;2023-01-30T06:37:07;96405.12;;;-2.18;66.64
61357;BME280;47227;46.752;23.576;2023-01-30T06:39:42;96407.23;;;-2.17;66.69
61357;BME280;47227;46.752;23.576;2023-01-30T06:42:29;96415.20;;;-2.14;67.17
61357;BME280;47227;46.752;23.576;2023-01-30T06:45:24;96418.57;;;-2.14;67.01
61357;BME280;47227;46.752;23.576;2023-01-30T06:47:54;96422.86;;;-2.12;67.21
61357;BME280;47227;46.752;23.576;2023-01-30T06:50:27;96427.75;;;-2.10;66.76
61357;BME280;47227;46.752;23.576;2023-01-30T06:53:07;96426.65;;;-2.08;66.91
61357;BME280;47227;46.752;23.576;2023-01-30T06:55:35;96418.45;;;-2.06;66.75
61357;BME280;47227;46.752;23.576;2023-01-30T06:58:10;96421.64;;;-2.06;66.81
61357;BME280;47227;46.752;23.576;2023-01-30T07:00:40;96421.56;;;-2.04;67.16
61357;BME280;47227;46.752;23.576;2023-01-30T07:32:21;96415.67;;;-1.52;65.25
61357;BME280;47227;46.752;23.576;2023-01-30T07:40:08;96415.95;;;-1.48;63.87
61357;BME280;47227;46.752;23.576;2023-01-30T07:44:08;96417.36;;;-1.39;64.11
61357;BME280;47227;46.752;23.576;2023-01-30T10:28:28;96173.48;;;1.45;53.53
61357;BME280;47227;46.752;23.576;2023-01-30T10:31:27;96170.88;;;1.39;53.79
61357;BME280;47227;46.752;23.576;2023-01-30T10:34:04;96172.63;;;1.49;54.68
61357;BME280;47227;46.752;23.576;2023-01-30T10:53:54;96139.73;;;1.45;54.07
61357;BME280;47227;46.752;23.576;2023-01-30T10:56:36;96131.08;;;1.28;53.80
61357;BME280;47227;46.752;23.576;2023-01-30T11:07:24;96096.43;;;1.59;54.81
61357;BME280;47227;46.752;23.576;2023-01-30T11:10:41;96084.15;;;1.58;53.50
61357;BME280;47227;46.752;23.576;2023-01-30T11:18:05;96068.50;;;1.62;54.00
61357;BME280;47227;46.752;23.576;2023-01-30T12:04:43;95974.59;;;1.87;55.61
61357;BME280;47227;46.752;23.576;2023-01-30T12:07:30;95963.65;;;2.06;54.68
61357;BME280;47227;46.752;23.576;2023-01-30T12:10:39;95962.30;;;1.92;53.49
61357;BME280;47227;46.752;23.576;2023-01-30T12:26:51;95933.55;;;1.76;54.79
61357;BME280;47227;46.752;23.576;2023-01-30T12:30:15;95931.59;;;2.18;55.56
61357;BME280;47227;46.752;23.576;2023-01-30T12:33:20;95921.78;;;2.67;54.25
61357;BME280;47227;46.752;23.576;2023-01-30T12:40:29;95909.53;;;2.55;52.75
61357;BME280;47227;46.752;23.576;2023-01-30T12:44:08;95911.50;;;2.52;52.63
61357;BME280;47227;46.752;23.576;2023-01-30T12:47:33;95919.73;;;2.82;52.70
61357;BME280;47227;46.752;23.576;2023-01-30T12:50:51;95922.54;;;2.70;52.36
61357;BME280;47227;46.752;23.576;2023-01-30T12:53:55;95927.53;;;2.76;52.85
61357;BME280;47227;46.752;23.576;2023-01-30T12:57:15;95925.23;;;2.72;53.60
61357;BME280;47227;46.752;23.576;2023-01-30T13:03:25;95919.42;;;2.82;54.24
61357;BME280;47227;46.752;23.576;2023-01-30T13:07:40;95919.94;;;2.80;54.62
61357;BME280;47227;46.752;23.576;2023-01-30T13:14:08;95917.51;;;2.74;54.99
61357;BME280;47227;46.752;23.576;2023-01-30T13:20:46;95912.60;;;2.75;54.97
61357;BME280;47227;46.752;23.576;2023-01-30T13:23:52;95907.77;;;2.78;55.05
61357;BME280;47227;46.752;23.576;2023-01-30T13:26:42;95909.55;;;2.87;54.64
61357;BME280;47227;46.752;23.576;2023-01-30T13:29:45;95899.70;;;2.89;54.59
61357;BME280;47227;46.752;23.576;2023-01-30T13:35:45;95905.38;;;2.68;54.69
61357;BME280;47227;46.752;23.576;2023-01-30T13:38:21;95898.77;;;2.75;55.09
61357;BME280;47227;46.752;23.576;2023-01-30T13:40:56;95896.70;;;2.56;54.34
61357;BME280;47227;46.752;23.576;2023-01-30T13:43:35;95896.32;;;2.15;54.72
61357;BME280;47227;46.752;23.576;2023-01-30T13:46:35;95894.21;;;1.99;55.51
61357;BME280;47227;46.752;23.576;2023-01-30T13:58:20;95882.77;;;1.35;57.76
61357;BME280;47227;46.752;23.576;2023-01-30T14:18:14;95858.33;;;1.71;57.18
61357;BME280;47227;46.752;23.576;2023-01-30T17:41:37;95798.81;;;-1.07;69.41
61357;BME280;47227;46.752;23.576;2023-01-30T19:44:00;95764.15;;;-1.55;77.37
61357;BME280;47227;46.752;23.576;2023-01-30T20:08:54;95752.29;;;-1.76;78.60
61357;BME280;47227;46.752;23.576;2023-01-30T20:12:02;95756.16;;;-1.73;78.26
61357;BME280;47227;46.752;23.576;2023-01-30T20:15:58;95753.86;;;-1.71;77.85
61357;BME280;47227;46.752;23.576;2023-01-30T20:18:55;95760.38;;;-1.68;77.53
61357;BME280;47227;46.752;23.576;2023-01-30T20:22:40;95766.39;;;-1.65;78.00
61357;BME280;47227;46.752;23.576;2023-01-30T20:26:04;95768.45;;;-1.62;78.57
61357;BME280;47227;46.752;23.576;2023-01-30T20:30:04;95762.73;;;-1.71;81.04
61357;BME280;47227;46.752;23.576;2023-01-30T20:33:22;95754.98;;;-1.72;80.72
61357;BME280;47227;46.752;23.576;2023-01-30T20:36:17;95747.09;;;-1.60;79.66
61357;BME280;47227;46.752;23.576;2023-01-30T20:39:35;95743.72;;;-1.51;79.64
61357;BME280;47227;46.752;23.576;2023-01-30T20:46:44;95744.31;;;-1.34;79.00
61357;BME280;47227;46.752;23.576;2023-01-30T20:53:14;95737.77;;;-1.31;79.64
61357;BME280;47227;46.752;23.576;2023-01-30T21:03:02;95752.38;;;-1.27;81.09
61357;BME280;47227;46.752;23.576;2023-01-30T21:09:52;95751.89;;;-1.22;79.78
61357;BME280;47227;46.752;23.576;2023-01-30T21:13:26;95754.79;;;-1.44;82.74
61357;BME280;47227;46.752;23.576;2023-01-30T21:16:49;95749.64;;;-1.55;83.01
61357;BME280;47227;46.752;23.576;2023-01-30T21:20:17;95746.60;;;-1.61;84.01
61357;BME280;47227;46.752;23.576;2023-01-30T21:23:42;95753.27;;;-1.72;84.64
61357;BME280;47227;46.752;23.576;2023-01-30T21:30:50;95746.94;;;-1.65;82.95
61357;BME280;47227;46.752;23.576;2023-01-30T21:34:02;95744.21;;;-1.72;84.69
61357;BME280;47227;46.752;23.576;2023-01-30T21:47:03;95758.16;;;-1.64;83.35
61357;BME280;47227;46.752;23.576;2023-01-30T21:59:25;95754.91;;;-1.66;83.68
61357;BME280;47227;46.752;23.576;2023-01-30T22:06:38;95746.67;;;-1.78;84.79
61357;BME280;47227;46.752;23.576;2023-01-30T22:14:02;95731.53;;;-1.70;83.26
61357;BME280;47227;46.752;23.576;2023-01-30T22:17:48;95722.56;;;-1.61;82.82
61357;BME280;47227;46.752;23.576;2023-01-30T22:20:59;95721.39;;;-1.55;82.92
61357;BME280;47227;46.752;23.576;2023-01-30T22:24:33;95722.83;;;-1.45;82.84
61357;BME280;47227;46.752;23.576;2023-01-30T22:28:16;95717.35;;;-1.36;82.73
61357;BME280;47227;46.752;23.576;2023-01-30T22:30:44;95710.51;;;-1.30;82.46
61357;BME280;47227;46.752;23.576;2023-01-30T22:33:13;95699.86;;;-1.30;83.04
61357;BME280;47227;46.752;23.576;2023-01-30T22:35:47;95700.64;;;-1.52;84.32
61357;BME280;47227;46.752;23.576;2023-01-30T22:38:16;95698.87;;;-1.60;85.29
61357;BME280;47227;46.752;23.576;2023-01-30T22:40:46;95693.14;;;-1.54;84.72
61357;BME280;47227;46.752;23.576;2023-01-30T22:43:14;95693.14;;;-1.55;85.08
61357;BME280;47227;46.752;23.576;2023-01-30T22:45:43;95702.92;;;-1.49;84.56
61357;BME280;47227;46.752;23.576;2023-01-30T22:48:10;95700.86;;;-1.39;83.84
61357;BME280;47227;46.752;23.576;2023-01-30T22:50:38;95690.88;;;-1.35;83.68
61357;BME280;47227;46.752;23.576;2023-01-30T22:53:06;95686.69;;;-1.40;84.25
61357;BME280;47227;46.752;23.576;2023-01-30T22:55:34;95689.55;;;-1.38;83.63
61357;BME280;47227;46.752;23.576;2023-01-30T22:58:02;95689.26;;;-1.40;84.64
61357;BME280;47227;46.752;23.576;2023-01-30T23:00:30;95691.73;;;-1.45;84.58
61357;BME280;47227;46.752;23.576;2023-01-30T23:02:58;95693.44;;;-1.52;84.51
61357;BME280;47227;46.752;23.576;2023-01-30T23:05:26;95688.96;;;-1.57;84.76
61357;BME280;47227;46.752;23.576;2023-01-30T23:07:54;95685.03;;;-1.64;85.39
61357;BME280;47227;46.752;23.576;2023-01-30T23:10:22;95681.94;;;-1.70;85.42
61357;BME280;47227;46.752;23.576;2023-01-30T23:12:50;95676.96;;;-1.77;86.03
61357;BME280;47227;46.752;23.576;2023-01-30T23:15:31;95675.04;;;-1.84;86.44
61357;BME280;47227;46.752;23.576;2023-01-30T23:18:02;95671.71;;;-1.90;86.89
61357;BME280;47227;46.752;23.576;2023-01-30T23:21:09;95670.39;;;-1.97;87.47
61357;BME280;47227;46.752;23.576;2023-01-30T23:25:01;95671.48;;;-2.10;89.07
61357;BME280;47227;46.752;23.576;2023-01-30T23:28:18;95670.69;;;-2.11;89.44
61357;BME280;47227;46.752;23.576;2023-01-30T23:31:39;95666.06;;;-2.05;89.35
61357;BME280;47227;46.752;23.576;2023-01-30T23:35:07;95670.81;;;-1.99;88.77
61357;BME280;47227;46.752;23.576;2023-01-30T23:38:15;95668.50;;;-1.95;88.04
61357;BME280;47227;46.752;23.576;2023-01-30T23:41:48;95668.92;;;-1.93;88.87
61357;BME280;47227;46.752;23.576;2023-01-30T23:45:36;95665.33;;;-1.87;87.52
61357;BME280;47227;46.752;23.576;2023-01-30T23:49:07;95674.06;;;-1.83;86.66
61357;BME280;47227;46.752;23.576;2023-01-30T23:52:59;95673.26;;;-1.81;86.00
61357;BME280;47227;46.752;23.576;2023-01-30T23:55:36;95671.15;;;-1.82;86.01
61357;BME280;47227;46.752;23.576;2023-01-30T23:58:58;95669.30;;;-1.82;87.34
